Terminal Aerodrome Forecast
Issued by NWS Twin Cities, MN

Home | Current Version | Previous Version | Graphics & Text | Print | Product List | Glossary On
Versions: 1 2 3 4 5 6 7 8 9 10 11 12 13 14 15 16 17 18 19 20
263
FTUS43 KMPX 221735
TAFEAU
TAF
KEAU 221735Z 2218/2318 33004KT P6SM BKN006
      TEMPO 2218/2221 SCT006 OVC017
     FM222100 32004KT 5SM BR BKN006
     FM230000 29003KT 3SM BR BKN005
     FM230300 VRB03KT 1SM BR OVC003
     FM231200 VRB03KT 4SM BR OVC005
     FM231600 VRB03KT P6SM OVC008=

USA.gov is the U.S. government's official web portal to all federal, state and local government web resources and services.